buergerstimme.com alexa rank chart, buergerstimme.com alexa rank daily changes

buergerstimme.com alexa rank chart, buergerstimme.com alexa rank daily changes

buergerstimme.com
Actual rank:
281 135

RANK HISTORY

Date Rank Diff
2017/04/26 281 135 +9 650
2017/04/25 271 485 -1 403
2017/04/24 272 888 +588
2017/04/23 272 300 -1 761
2017/04/22 274 061 -3 243
2017/04/21 277 304 +658
2017/04/20 276 646 -5 778
2017/04/19 282 424 +6 339
2017/04/18 276 085 +2 815
2017/04/17 273 270 +1 889
2017/04/16 271 381 -3 195
2017/04/15 274 576 +1 123
2017/04/14 273 453 -1 333
2017/04/13 274 786 -6 340
2017/04/12 281 126 +3 914
2017/04/11 277 212 -7 960
2017/04/10 285 172 +3 854
2017/04/09 281 318 -5 003
2017/04/08 286 321 +10 574
2017/04/07 275 747 +8 850
2017/04/06 266 897 -4 933
2017/04/05 271 830 +4 180
2017/04/04 267 650 -2 361
2017/04/03 270 011 -6 032
2017/04/02 276 043 -2 952
2017/04/01 278 995 +1 300
2017/03/31 277 695 +1 034
2017/03/30 276 661 +5 381
2017/03/29 271 280 -1 055
2017/03/28 272 335 +9 076
2017/03/27 263 259 +370
2017/03/26 262 889 -11 295
2017/03/25 274 184 -140
2017/03/24 274 324 -72
2017/03/23 274 396 +6 793
2017/03/22 267 603 +10 761
2017/03/21 256 842 +4 819
2017/03/20 252 023 +9 515
2017/03/19 242 508 +15 429
2017/03/18 227 079 -459
2017/03/17 227 538 -3 744
2017/03/16 231 282 +519
2017/03/15 230 763 -688
2017/03/14 231 451 -233
2017/03/13 231 684 +1 541
2017/03/12 230 143 +466
2017/03/11 229 677 +4 589
2017/03/10 225 088 +2 719
2017/03/09 222 369 +2 911
2017/03/08 219 458 -3 295
2017/03/07 222 753 +2 632
2017/03/06 220 121 +1 153
2017/03/01 218 968 -12 736
2017/02/28 231 704 -5 820
2017/02/27 237 524 -130
2017/02/26 237 654 -1 774
2017/02/25 239 428

WIDGET FOR YOUR SITE

DOMAINS WITH THE NEAREST RANK

Domain Rank
vt-s.net 281 130
speedtest-cantv.com 281 131
velobase.com 281 132
sensaklub.hr 281 133
nkut.edu.tw 281 134
buergerstimme.com 281 135
esu.wiki 281 136
jaumo.com 281 137
trade-our-money.com 281 138
notizieinmovimentonews.blogspot.it 281 139
twubs.com 281 140

DOMAINS WITH THE NEAREST RANK BY TLD .com

Domain Rank
bacme.com 281 127
workfusion.com 281 128
hangar.com 281 129
speedtest-cantv.com 281 131
velobase.com 281 132
buergerstimme.com 281 135
jaumo.com 281 137
trade-our-money.com 281 138
twubs.com 281 140
iranfso.com 281 141
americanhotel.com 281 142